sensor_id;sensor_type;location;lat;lon;timestamp;P1;durP1;ratioP1;P2;durP2;ratioP2
48516;SDS011;34310;51.904;4.256;2023-01-19T00:01:24;2.53;;;1.45;;
48516;SDS011;34310;51.904;4.256;2023-01-19T00:03:52;2.92;;;1.70;;
48516;SDS011;34310;51.904;4.256;2023-01-19T00:06:19;2.88;;;1.60;;
48516;SDS011;34310;51.904;4.256;2023-01-19T00:08:46;4.15;;;1.80;;
48516;SDS011;34310;51.904;4.256;2023-01-19T00:11:15;3.38;;;1.45;;
48516;SDS011;34310;51.904;4.256;2023-01-19T00:13:43;3.20;;;1.40;;
48516;SDS011;34310;51.904;4.256;2023-01-19T00:16:18;3.40;;;1.48;;
48516;SDS011;34310;51.904;4.256;2023-01-19T00:18:47;2.72;;;1.50;;
48516;SDS011;34310;51.904;4.256;2023-01-19T00:21:16;3.42;;;1.50;;
48516;SDS011;34310;51.904;4.256;2023-01-19T00:23:44;3.50;;;1.58;;
48516;SDS011;34310;51.904;4.256;2023-01-19T00:26:16;2.08;;;1.17;;
48516;SDS011;34310;51.904;4.256;2023-01-19T00:28:44;1.40;;;1.13;;
48516;SDS011;34310;51.904;4.256;2023-01-19T00:31:11;2.38;;;1.23;;
48516;SDS011;34310;51.904;4.256;2023-01-19T00:33:39;2.10;;;1.20;;
48516;SDS011;34310;51.904;4.256;2023-01-19T00:36:07;3.45;;;1.20;;
48516;SDS011;34310;51.904;4.256;2023-01-19T00:38:35;2.08;;;1.27;;
48516;SDS011;34310;51.904;4.256;2023-01-19T00:41:04;2.00;;;1.10;;
48516;SDS011;34310;51.904;4.256;2023-01-19T00:43:31;1.90;;;0.90;;
48516;SDS011;34310;51.904;4.256;2023-01-19T00:45:59;2.97;;;1.35;;
48516;SDS011;34310;51.904;4.256;2023-01-19T00:48:26;2.10;;;1.15;;
48516;SDS011;34310;51.904;4.256;2023-01-19T00:50:53;1.90;;;1.23;;
48516;SDS011;34310;51.904;4.256;2023-01-19T00:53:21;3.13;;;1.13;;
48516;SDS011;34310;51.904;4.256;2023-01-19T00:55:48;2.97;;;1.10;;
48516;SDS011;34310;51.904;4.256;2023-01-19T00:58:16;1.77;;;1.20;;
48516;SDS011;34310;51.904;4.256;2023-01-19T01:00:43;1.13;;;0.82;;
48516;SDS011;34310;51.904;4.256;2023-01-19T01:03:10;2.30;;;1.05;;
48516;SDS011;34310;51.904;4.256;2023-01-19T01:05:39;1.63;;;1.10;;
48516;SDS011;34310;51.904;4.256;2023-01-19T01:08:07;2.53;;;0.82;;
48516;SDS011;34310;51.904;4.256;2023-01-19T01:10:34;2.63;;;1.13;;
48516;SDS011;34310;51.904;4.256;2023-01-19T01:13:02;1.05;;;0.90;;
48516;SDS011;34310;51.904;4.256;2023-01-19T01:15:48;1.70;;;1.00;;
48516;SDS011;34310;51.904;4.256;2023-01-19T01:18:16;1.95;;;0.90;;
48516;SDS011;34310;51.904;4.256;2023-01-19T01:20:44;2.35;;;0.98;;
48516;SDS011;34310;51.904;4.256;2023-01-19T01:23:11;1.38;;;0.98;;
48516;SDS011;34310;51.904;4.256;2023-01-19T01:25:39;2.33;;;0.93;;
48516;SDS011;34310;51.904;4.256;2023-01-19T01:28:08;2.60;;;0.82;;
48516;SDS011;34310;51.904;4.256;2023-01-19T01:30:36;1.13;;;0.90;;
48516;SDS011;34310;51.904;4.256;2023-01-19T01:33:06;1.45;;;0.85;;
48516;SDS011;34310;51.904;4.256;2023-01-19T01:35:34;1.88;;;0.93;;
48516;SDS011;34310;51.904;4.256;2023-01-19T01:38:01;1.75;;;0.90;;
48516;SDS011;34310;51.904;4.256;2023-01-19T01:40:29;1.75;;;0.90;;
48516;SDS011;34310;51.904;4.256;2023-01-19T01:42:56;1.55;;;0.82;;
48516;SDS011;34310;51.904;4.256;2023-01-19T01:47:57;1.20;;;0.80;;
48516;SDS011;34310;51.904;4.256;2023-01-19T01:50:40;2.10;;;0.80;;
48516;SDS011;34310;51.904;4.256;2023-01-19T01:53:33;1.65;;;0.80;;
48516;SDS011;34310;51.904;4.256;2023-01-19T01:56:04;2.20;;;1.10;;
48516;SDS011;34310;51.904;4.256;2023-01-19T01:58:37;1.33;;;0.70;;
48516;SDS011;34310;51.904;4.256;2023-01-19T02:01:05;1.33;;;0.90;;
48516;SDS011;34310;51.904;4.256;2023-01-19T02:03:54;2.78;;;0.82;;
48516;SDS011;34310;51.904;4.256;2023-01-19T02:06:23;1.27;;;0.70;;
48516;SDS011;34310;51.904;4.256;2023-01-19T02:08:52;1.27;;;0.70;;
48516;SDS011;34310;51.904;4.256;2023-01-19T02:11:47;1.38;;;0.80;;
48516;SDS011;34310;51.904;4.256;2023-01-19T02:14:34;0.95;;;0.50;;
48516;SDS011;34310;51.904;4.256;2023-01-19T02:17:05;1.17;;;0.80;;
48516;SDS011;34310;51.904;4.256;2023-01-19T02:19:34;1.27;;;0.60;;
48516;SDS011;34310;51.904;4.256;2023-01-19T02:22:10;0.75;;;0.60;;
48516;SDS011;34310;51.904;4.256;2023-01-19T02:24:46;1.40;;;0.73;;
48516;SDS011;34310;51.904;4.256;2023-01-19T02:27:15;2.63;;;0.80;;
48516;SDS011;34310;51.904;4.256;2023-01-19T02:29:43;1.80;;;0.90;;
48516;SDS011;34310;51.904;4.256;2023-01-19T02:32:10;1.30;;;0.60;;
48516;SDS011;34310;51.904;4.256;2023-01-19T02:34:38;1.95;;;0.73;;
48516;SDS011;34310;51.904;4.256;2023-01-19T02:37:06;1.38;;;0.80;;
48516;SDS011;34310;51.904;4.256;2023-01-19T02:39:46;1.73;;;0.60;;
48516;SDS011;34310;51.904;4.256;2023-01-19T02:42:24;1.40;;;0.57;;
48516;SDS011;34310;51.904;4.256;2023-01-19T02:45:01;1.73;;;0.50;;
48516;SDS011;34310;51.904;4.256;2023-01-19T02:47:38;1.27;;;0.57;;
48516;SDS011;34310;51.904;4.256;2023-01-19T02:55:57;1.83;;;0.57;;
48516;SDS011;34310;51.904;4.256;2023-01-19T03:01:39;0.60;;;0.60;;
48516;SDS011;34310;51.904;4.256;2023-01-19T03:04:35;2.40;;;0.70;;
48516;SDS011;34310;51.904;4.256;2023-01-19T03:10:13;0.95;;;0.50;;
48516;SDS011;34310;51.904;4.256;2023-01-19T03:13:08;2.83;;;0.60;;
48516;SDS011;34310;51.904;4.256;2023-01-19T03:18:20;0.95;;;0.60;;
48516;SDS011;34310;51.904;4.256;2023-01-19T03:20:52;0.98;;;0.77;;
48516;SDS011;34310;51.904;4.256;2023-01-19T03:23:25;0.88;;;0.60;;
48516;SDS011;34310;51.904;4.256;2023-01-19T03:25:56;1.25;;;0.60;;
48516;SDS011;34310;51.904;4.256;2023-01-19T03:28:27;1.70;;;0.73;;
48516;SDS011;34310;51.904;4.256;2023-01-19T03:30:57;1.15;;;0.70;;
48516;SDS011;34310;51.904;4.256;2023-01-19T03:33:30;1.02;;;0.60;;
48516;SDS011;34310;51.904;4.256;2023-01-19T03:36:02;2.50;;;0.52;;
48516;SDS011;34310;51.904;4.256;2023-01-19T03:38:39;1.20;;;0.60;;
48516;SDS011;34310;51.904;4.256;2023-01-19T03:41:08;1.02;;;0.50;;
48516;SDS011;34310;51.904;4.256;2023-01-19T03:43:40;2.42;;;0.82;;
48516;SDS011;34310;51.904;4.256;2023-01-19T03:46:09;1.02;;;0.52;;
48516;SDS011;34310;51.904;4.256;2023-01-19T03:48:37;1.70;;;0.88;;
48516;SDS011;34310;51.904;4.256;2023-01-19T03:51:05;1.95;;;0.82;;
48516;SDS011;34310;51.904;4.256;2023-01-19T03:53:34;1.17;;;0.60;;
48516;SDS011;34310;51.904;4.256;2023-01-19T03:56:02;1.20;;;0.60;;
48516;SDS011;34310;51.904;4.256;2023-01-19T03:58:29;1.33;;;0.65;;
48516;SDS011;34310;51.904;4.256;2023-01-19T04:00:57;1.92;;;0.68;;
48516;SDS011;34310;51.904;4.256;2023-01-19T04:03:24;1.40;;;0.60;;
48516;SDS011;34310;51.904;4.256;2023-01-19T04:05:51;1.45;;;0.60;;
48516;SDS011;34310;51.904;4.256;2023-01-19T04:08:21;2.83;;;0.90;;
48516;SDS011;34310;51.904;4.256;2023-01-19T04:10:48;2.35;;;0.60;;
48516;SDS011;34310;51.904;4.256;2023-01-19T04:13:15;1.85;;;0.77;;
48516;SDS011;34310;51.904;4.256;2023-01-19T04:15:43;1.67;;;0.70;;
48516;SDS011;34310;51.904;4.256;2023-01-19T04:18:10;1.25;;;0.70;;
48516;SDS011;34310;51.904;4.256;2023-01-19T04:20:37;1.02;;;0.60;;
48516;SDS011;34310;51.904;4.256;2023-01-19T04:23:05;2.47;;;0.80;;
48516;SDS011;34310;51.904;4.256;2023-01-19T04:25:32;2.67;;;0.80;;
48516;SDS011;34310;51.904;4.256;2023-01-19T04:27:59;1.63;;;0.65;;
48516;SDS011;34310;51.904;4.256;2023-01-19T04:30:27;2.47;;;0.73;;
48516;SDS011;34310;51.904;4.256;2023-01-19T04:32:54;2.60;;;0.80;;
48516;SDS011;34310;51.904;4.256;2023-01-19T04:35:24;3.30;;;1.02;;
48516;SDS011;34310;51.904;4.256;2023-01-19T04:37:51;3.20;;;0.80;;
48516;SDS011;34310;51.904;4.256;2023-01-19T04:40:18;2.35;;;1.00;;
48516;SDS011;34310;51.904;4.256;2023-01-19T04:42:46;1.42;;;0.70;;
48516;SDS011;34310;51.904;4.256;2023-01-19T04:45:13;1.85;;;0.70;;
48516;SDS011;34310;51.904;4.256;2023-01-19T04:47:40;1.67;;;0.77;;
48516;SDS011;34310;51.904;4.256;2023-01-19T04:50:08;2.22;;;0.90;;
48516;SDS011;34310;51.904;4.256;2023-01-19T04:52:36;1.73;;;0.90;;
48516;SDS011;34310;51.904;4.256;2023-01-19T04:55:04;2.10;;;0.73;;
48516;SDS011;34310;51.904;4.256;2023-01-19T04:57:32;1.65;;;0.90;;
48516;SDS011;34310;51.904;4.256;2023-01-19T05:00:00;1.20;;;0.85;;
48516;SDS011;34310;51.904;4.256;2023-01-19T05:02:28;2.95;;;1.10;;
48516;SDS011;34310;51.904;4.256;2023-01-19T05:04:55;2.75;;;0.85;;
48516;SDS011;34310;51.904;4.256;2023-01-19T05:07:22;2.35;;;0.90;;
48516;SDS011;34310;51.904;4.256;2023-01-19T05:09:50;1.73;;;0.90;;
48516;SDS011;34310;51.904;4.256;2023-01-19T05:12:17;2.17;;;0.85;;
48516;SDS011;34310;51.904;4.256;2023-01-19T05:14:45;2.08;;;0.80;;
48516;SDS011;34310;51.904;4.256;2023-01-19T05:17:12;2.47;;;0.90;;
48516;SDS011;34310;51.904;4.256;2023-01-19T05:19:39;2.10;;;0.90;;
48516;SDS011;34310;51.904;4.256;2023-01-19T05:22:07;1.90;;;0.93;;
48516;SDS011;34310;51.904;4.256;2023-01-19T05:24:34;2.33;;;0.93;;
48516;SDS011;34310;51.904;4.256;2023-01-19T05:27:02;2.40;;;0.90;;
48516;SDS011;34310;51.904;4.256;2023-01-19T05:29:29;1.95;;;1.10;;
48516;SDS011;34310;51.904;4.256;2023-01-19T05:31:56;2.15;;;1.05;;
48516;SDS011;34310;51.904;4.256;2023-01-19T05:34:24;2.65;;;0.98;;
48516;SDS011;34310;51.904;4.256;2023-01-19T05:36:51;3.17;;;1.42;;
48516;SDS011;34310;51.904;4.256;2023-01-19T05:39:19;3.03;;;1.00;;
48516;SDS011;34310;51.904;4.256;2023-01-19T05:41:46;2.95;;;1.02;;
48516;SDS011;34310;51.904;4.256;2023-01-19T05:44:13;2.95;;;1.00;;
48516;SDS011;34310;51.904;4.256;2023-01-19T05:46:40;2.80;;;1.05;;
48516;SDS011;34310;51.904;4.256;2023-01-19T05:49:08;2.60;;;1.00;;
48516;SDS011;34310;51.904;4.256;2023-01-19T05:51:37;2.15;;;1.10;;
48516;SDS011;34310;51.904;4.256;2023-01-19T05:54:06;2.72;;;1.10;;
48516;SDS011;34310;51.904;4.256;2023-01-19T05:56:34;2.72;;;1.42;;
48516;SDS011;34310;51.904;4.256;2023-01-19T05:59:01;3.15;;;1.20;;
48516;SDS011;34310;51.904;4.256;2023-01-19T06:01:28;2.70;;;1.48;;
48516;SDS011;34310;51.904;4.256;2023-01-19T06:03:56;4.05;;;1.33;;
48516;SDS011;34310;51.904;4.256;2023-01-19T06:06:23;3.00;;;1.45;;
48516;SDS011;34310;51.904;4.256;2023-01-19T06:08:50;5.78;;;1.85;;
48516;SDS011;34310;51.904;4.256;2023-01-19T06:11:18;2.95;;;1.40;;
48516;SDS011;34310;51.904;4.256;2023-01-19T06:13:46;3.70;;;1.77;;
48516;SDS011;34310;51.904;4.256;2023-01-19T06:16:13;3.30;;;1.73;;
48516;SDS011;34310;51.904;4.256;2023-01-19T06:18:40;2.97;;;1.50;;
48516;SDS011;34310;51.904;4.256;2023-01-19T06:21:08;2.33;;;1.50;;
48516;SDS011;34310;51.904;4.256;2023-01-19T06:23:37;2.38;;;1.30;;
48516;SDS011;34310;51.904;4.256;2023-01-19T06:26:04;3.25;;;1.40;;
48516;SDS011;34310;51.904;4.256;2023-01-19T06:28:32;4.47;;;1.55;;
48516;SDS011;34310;51.904;4.256;2023-01-19T06:30:59;3.55;;;1.48;;
48516;SDS011;34310;51.904;4.256;2023-01-19T06:33:27;3.72;;;1.65;;
48516;SDS011;34310;51.904;4.256;2023-01-19T06:35:54;3.55;;;1.45;;
48516;SDS011;34310;51.904;4.256;2023-01-19T06:38:22;2.53;;;1.40;;
48516;SDS011;34310;51.904;4.256;2023-01-19T06:40:53;3.70;;;1.88;;
48516;SDS011;34310;51.904;4.256;2023-01-19T06:43:24;4.22;;;1.98;;
48516;SDS011;34310;51.904;4.256;2023-01-19T06:45:51;3.78;;;1.70;;
48516;SDS011;34310;51.904;4.256;2023-01-19T06:48:19;2.38;;;1.38;;
48516;SDS011;34310;51.904;4.256;2023-01-19T06:50:47;4.45;;;1.92;;
48516;SDS011;34310;51.904;4.256;2023-01-19T06:53:15;2.75;;;1.45;;
48516;SDS011;34310;51.904;4.256;2023-01-19T06:55:45;3.35;;;1.73;;
48516;SDS011;34310;51.904;4.256;2023-01-19T06:58:12;2.08;;;1.20;;
48516;SDS011;34310;51.904;4.256;2023-01-19T07:00:39;2.95;;;1.60;;
48516;SDS011;34310;51.904;4.256;2023-01-19T07:03:08;2.65;;;1.70;;
48516;SDS011;34310;51.904;4.256;2023-01-19T07:05:43;3.70;;;1.70;;
48516;SDS011;34310;51.904;4.256;2023-01-19T07:08:10;3.20;;;1.50;;
48516;SDS011;34310;51.904;4.256;2023-01-19T07:10:38;2.42;;;1.58;;
48516;SDS011;34310;51.904;4.256;2023-01-19T07:13:25;2.60;;;1.52;;
48516;SDS011;34310;51.904;4.256;2023-01-19T07:15:53;3.00;;;1.70;;
48516;SDS011;34310;51.904;4.256;2023-01-19T07:18:20;3.50;;;1.92;;
48516;SDS011;34310;51.904;4.256;2023-01-19T07:20:48;3.58;;;1.75;;
48516;SDS011;34310;51.904;4.256;2023-01-19T07:23:15;4.97;;;1.85;;
48516;SDS011;34310;51.904;4.256;2023-01-19T07:25:45;4.30;;;1.85;;
48516;SDS011;34310;51.904;4.256;2023-01-19T07:28:13;3.58;;;1.60;;
48516;SDS011;34310;51.904;4.256;2023-01-19T07:30:42;3.70;;;1.77;;
48516;SDS011;34310;51.904;4.256;2023-01-19T07:33:11;2.92;;;1.60;;
48516;SDS011;34310;51.904;4.256;2023-01-19T07:35:38;2.72;;;1.63;;
48516;SDS011;34310;51.904;4.256;2023-01-19T07:38:06;3.65;;;1.80;;
48516;SDS011;34310;51.904;4.256;2023-01-19T07:40:33;3.08;;;1.70;;
48516;SDS011;34310;51.904;4.256;2023-01-19T07:43:00;3.72;;;1.48;;
48516;SDS011;34310;51.904;4.256;2023-01-19T07:45:28;3.42;;;1.70;;
48516;SDS011;34310;51.904;4.256;2023-01-19T07:47:56;3.55;;;1.50;;
48516;SDS011;34310;51.904;4.256;2023-01-19T07:50:23;3.85;;;2.10;;
48516;SDS011;34310;51.904;4.256;2023-01-19T07:52:52;4.90;;;1.95;;
48516;SDS011;34310;51.904;4.256;2023-01-19T07:55:21;5.07;;;1.48;;
48516;SDS011;34310;51.904;4.256;2023-01-19T07:57:49;4.10;;;1.48;;
48516;SDS011;34310;51.904;4.256;2023-01-19T08:00:17;3.42;;;1.63;;
48516;SDS011;34310;51.904;4.256;2023-01-19T08:02:47;3.10;;;1.50;;
48516;SDS011;34310;51.904;4.256;2023-01-19T08:05:16;3.83;;;1.60;;
48516;SDS011;34310;51.904;4.256;2023-01-19T08:07:45;2.50;;;1.35;;
48516;SDS011;34310;51.904;4.256;2023-01-19T08:10:13;4.32;;;1.70;;
48516;SDS011;34310;51.904;4.256;2023-01-19T08:12:42;4.78;;;1.52;;
48516;SDS011;34310;51.904;4.256;2023-01-19T08:15:09;3.47;;;1.50;;
48516;SDS011;34310;51.904;4.256;2023-01-19T08:17:37;2.55;;;1.55;;
48516;SDS011;34310;51.904;4.256;2023-01-19T08:20:04;3.33;;;1.70;;
48516;SDS011;34310;51.904;4.256;2023-01-19T08:22:33;2.88;;;1.55;;
48516;SDS011;34310;51.904;4.256;2023-01-19T08:25:01;3.70;;;1.55;;
48516;SDS011;34310;51.904;4.256;2023-01-19T08:27:29;3.13;;;1.60;;
48516;SDS011;34310;51.904;4.256;2023-01-19T08:29:56;3.38;;;1.60;;
48516;SDS011;34310;51.904;4.256;2023-01-19T08:32:23;3.30;;;1.20;;
48516;SDS011;34310;51.904;4.256;2023-01-19T08:34:51;3.17;;;1.33;;
48516;SDS011;34310;51.904;4.256;2023-01-19T08:37:18;2.55;;;1.23;;
48516;SDS011;34310;51.904;4.256;2023-01-19T08:39:47;2.28;;;1.15;;
48516;SDS011;34310;51.904;4.256;2023-01-19T08:42:14;2.33;;;1.40;;
48516;SDS011;34310;51.904;4.256;2023-01-19T08:44:41;3.88;;;1.45;;
48516;SDS011;34310;51.904;4.256;2023-01-19T08:47:23;2.72;;;1.30;;
48516;SDS011;34310;51.904;4.256;2023-01-19T08:49:50;3.45;;;1.23;;
48516;SDS011;34310;51.904;4.256;2023-01-19T08:52:17;2.25;;;1.25;;
48516;SDS011;34310;51.904;4.256;2023-01-19T08:54:45;2.83;;;1.10;;
48516;SDS011;34310;51.904;4.256;2023-01-19T08:57:12;2.13;;;1.38;;
48516;SDS011;34310;51.904;4.256;2023-01-19T08:59:40;2.40;;;1.20;;
48516;SDS011;34310;51.904;4.256;2023-01-19T09:02:08;2.13;;;1.00;;
48516;SDS011;34310;51.904;4.256;2023-01-19T09:04:36;2.30;;;1.25;;
48516;SDS011;34310;51.904;4.256;2023-01-19T09:07:03;1.90;;;0.93;;
48516;SDS011;34310;51.904;4.256;2023-01-19T09:09:35;3.03;;;1.10;;
48516;SDS011;34310;51.904;4.256;2023-01-19T09:12:04;3.05;;;1.33;;
48516;SDS011;34310;51.904;4.256;2023-01-19T09:14:32;2.50;;;1.13;;
48516;SDS011;34310;51.904;4.256;2023-01-19T09:16:59;3.30;;;1.20;;
48516;SDS011;34310;51.904;4.256;2023-01-19T09:19:26;2.33;;;1.20;;
48516;SDS011;34310;51.904;4.256;2023-01-19T09:21:54;1.95;;;1.25;;
48516;SDS011;34310;51.904;4.256;2023-01-19T09:24:21;2.08;;;1.00;;
48516;SDS011;34310;51.904;4.256;2023-01-19T09:26:48;2.60;;;1.00;;
48516;SDS011;34310;51.904;4.256;2023-01-19T09:29:16;2.60;;;1.08;;
48516;SDS011;34310;51.904;4.256;2023-01-19T09:31:43;2.05;;;1.27;;
48516;SDS011;34310;51.904;4.256;2023-01-19T09:34:11;2.47;;;1.20;;
48516;SDS011;34310;51.904;4.256;2023-01-19T09:36:38;2.28;;;1.00;;
48516;SDS011;34310;51.904;4.256;2023-01-19T09:39:06;2.75;;;1.02;;
48516;SDS011;34310;51.904;4.256;2023-01-19T09:41:34;2.70;;;1.20;;
48516;SDS011;34310;51.904;4.256;2023-01-19T09:44:03;1.95;;;1.10;;
48516;SDS011;34310;51.904;4.256;2023-01-19T09:46:32;3.33;;;1.00;;
48516;SDS011;34310;51.904;4.256;2023-01-19T09:49:25;2.30;;;0.90;;
48516;SDS011;34310;51.904;4.256;2023-01-19T09:51:58;2.00;;;1.25;;
48516;SDS011;34310;51.904;4.256;2023-01-19T09:54:28;1.98;;;1.00;;
48516;SDS011;34310;51.904;4.256;2023-01-19T09:57:12;2.00;;;1.00;;
48516;SDS011;34310;51.904;4.256;2023-01-19T09:59:40;2.33;;;1.20;;
48516;SDS011;34310;51.904;4.256;2023-01-19T10:05:36;3.35;;;1.23;;
48516;SDS011;34310;51.904;4.256;2023-01-19T10:10:57;1.65;;;0.80;;
48516;SDS011;34310;51.904;4.256;2023-01-19T10:18:58;1.55;;;0.93;;
48516;SDS011;34310;51.904;4.256;2023-01-19T10:21:40;2.17;;;0.95;;
48516;SDS011;34310;51.904;4.256;2023-01-19T10:26:49;3.13;;;0.90;;
48516;SDS011;34310;51.904;4.256;2023-01-19T10:31:46;1.30;;;0.95;;
48516;SDS011;34310;51.904;4.256;2023-01-19T10:34:17;1.08;;;0.68;;
48516;SDS011;34310;51.904;4.256;2023-01-19T10:36:49;1.85;;;1.08;;
48516;SDS011;34310;51.904;4.256;2023-01-19T10:39:27;1.52;;;0.90;;
48516;SDS011;34310;51.904;4.256;2023-01-19T10:41:55;1.67;;;0.80;;
48516;SDS011;34310;51.904;4.256;2023-01-19T10:44:28;1.15;;;0.75;;
48516;SDS011;34310;51.904;4.256;2023-01-19T10:47:01;1.80;;;0.80;;
48516;SDS011;34310;51.904;4.256;2023-01-19T10:49:38;1.60;;;0.82;;
48516;SDS011;34310;51.904;4.256;2023-01-19T10:55:03;1.40;;;0.70;;
48516;SDS011;34310;51.904;4.256;2023-01-19T10:57:33;1.88;;;0.77;;
48516;SDS011;34310;51.904;4.256;2023-01-19T11:00:04;1.65;;;0.88;;
48516;SDS011;34310;51.904;4.256;2023-01-19T11:02:52;0.90;;;0.60;;
48516;SDS011;34310;51.904;4.256;2023-01-19T11:05:21;0.98;;;0.57;;
48516;SDS011;34310;51.904;4.256;2023-01-19T11:07:50;2.17;;;0.80;;
48516;SDS011;34310;51.904;4.256;2023-01-19T11:10:19;1.58;;;0.80;;
48516;SDS011;34310;51.904;4.256;2023-01-19T11:12:58;2.35;;;0.82;;
48516;SDS011;34310;51.904;4.256;2023-01-19T11:15:41;2.17;;;0.80;;
48516;SDS011;34310;51.904;4.256;2023-01-19T11:18:26;1.63;;;0.70;;
48516;SDS011;34310;51.904;4.256;2023-01-19T11:20:57;1.95;;;0.90;;
48516;SDS011;34310;51.904;4.256;2023-01-19T11:23:28;1.20;;;0.70;;
48516;SDS011;34310;51.904;4.256;2023-01-19T11:25:59;1.67;;;0.90;;
48516;SDS011;34310;51.904;4.256;2023-01-19T11:28:30;1.13;;;0.50;;
48516;SDS011;34310;51.904;4.256;2023-01-19T11:30:59;0.80;;;0.57;;
48516;SDS011;34310;51.904;4.256;2023-01-19T11:33:48;1.45;;;0.68;;
48516;SDS011;34310;51.904;4.256;2023-01-19T11:36:21;1.15;;;0.70;;
48516;SDS011;34310;51.904;4.256;2023-01-19T11:38:52;1.23;;;0.77;;
48516;SDS011;34310;51.904;4.256;2023-01-19T11:41:24;1.20;;;0.80;;
48516;SDS011;34310;51.904;4.256;2023-01-19T11:43:56;1.08;;;0.60;;
48516;SDS011;34310;51.904;4.256;2023-01-19T11:46:34;1.35;;;0.70;;
48516;SDS011;34310;51.904;4.256;2023-01-19T11:57:00;1.33;;;0.50;;
48516;SDS011;34310;51.904;4.256;2023-01-19T11:59:31;0.73;;;0.50;;
48516;SDS011;34310;51.904;4.256;2023-01-19T12:01:59;1.58;;;0.65;;
48516;SDS011;34310;51.904;4.256;2023-01-19T12:04:36;2.50;;;0.70;;
48516;SDS011;34310;51.904;4.256;2023-01-19T12:07:07;0.85;;;0.50;;
48516;SDS011;34310;51.904;4.256;2023-01-19T12:09:42;1.30;;;0.68;;
48516;SDS011;34310;51.904;4.256;2023-01-19T12:17:48;0.85;;;0.68;;
48516;SDS011;34310;51.904;4.256;2023-01-19T12:22:46;0.93;;;0.50;;
48516;SDS011;34310;51.904;4.256;2023-01-19T12:28:10;1.20;;;0.50;;
48516;SDS011;34310;51.904;4.256;2023-01-19T12:30:39;1.70;;;0.60;;
48516;SDS011;34310;51.904;4.256;2023-01-19T12:36:08;1.10;;;0.50;;
48516;SDS011;34310;51.904;4.256;2023-01-19T12:38:49;1.55;;;0.60;;
48516;SDS011;34310;51.904;4.256;2023-01-19T12:41:39;1.40;;;0.50;;
48516;SDS011;34310;51.904;4.256;2023-01-19T12:51:46;1.48;;;0.70;;
48516;SDS011;34310;51.904;4.256;2023-01-19T12:54:22;1.63;;;0.70;;
48516;SDS011;34310;51.904;4.256;2023-01-19T12:57:00;1.10;;;0.63;;
48516;SDS011;34310;51.904;4.256;2023-01-19T12:59:34;2.22;;;0.68;;
48516;SDS011;34310;51.904;4.256;2023-01-19T13:13:33;1.23;;;0.50;;
48516;SDS011;34310;51.904;4.256;2023-01-19T13:21:24;0.93;;;0.50;;
48516;SDS011;34310;51.904;4.256;2023-01-19T13:23:58;1.55;;;0.70;;
48516;SDS011;34310;51.904;4.256;2023-01-19T13:26:26;2.20;;;0.90;;
48516;SDS011;34310;51.904;4.256;2023-01-19T13:29:07;2.30;;;0.60;;
48516;SDS011;34310;51.904;4.256;2023-01-19T13:31:41;0.68;;;0.65;;
48516;SDS011;34310;51.904;4.256;2023-01-19T13:34:11;1.15;;;0.63;;
48516;SDS011;34310;51.904;4.256;2023-01-19T13:36:44;2.05;;;0.57;;
48516;SDS011;34310;51.904;4.256;2023-01-19T13:42:01;0.95;;;0.52;;
48516;SDS011;34310;51.904;4.256;2023-01-19T13:44:33;1.50;;;0.80;;
48516;SDS011;34310;51.904;4.256;2023-01-19T13:47:34;1.70;;;0.60;;
48516;SDS011;34310;51.904;4.256;2023-01-19T13:50:21;1.52;;;0.60;;
48516;SDS011;34310;51.904;4.256;2023-01-19T13:52:58;1.38;;;0.57;;
48516;SDS011;34310;51.904;4.256;2023-01-19T13:55:27;1.27;;;0.60;;
48516;SDS011;34310;51.904;4.256;2023-01-19T13:57:55;0.75;;;0.57;;
48516;SDS011;34310;51.904;4.256;2023-01-19T14:00:27;1.15;;;0.70;;
48516;SDS011;34310;51.904;4.256;2023-01-19T14:05:37;0.88;;;0.50;;
48516;SDS011;34310;51.904;4.256;2023-01-19T14:10:44;1.27;;;0.80;;
48516;SDS011;34310;51.904;4.256;2023-01-19T14:13:33;0.50;;;0.50;;
48516;SDS011;34310;51.904;4.256;2023-01-19T14:16:09;0.60;;;0.50;;
48516;SDS011;34310;51.904;4.256;2023-01-19T14:18:41;1.13;;;0.60;;
48516;SDS011;34310;51.904;4.256;2023-01-19T14:21:09;1.48;;;0.60;;
48516;SDS011;34310;51.904;4.256;2023-01-19T14:23:48;0.68;;;0.63;;
48516;SDS011;34310;51.904;4.256;2023-01-19T14:34:48;1.00;;;0.60;;
48516;SDS011;34310;51.904;4.256;2023-01-19T14:37:30;0.98;;;0.45;;
48516;SDS011;34310;51.904;4.256;2023-01-19T14:42:58;0.82;;;0.50;;
48516;SDS011;34310;51.904;4.256;2023-01-19T14:45:35;0.70;;;0.50;;
48516;SDS011;34310;51.904;4.256;2023-01-19T14:48:11;0.90;;;0.52;;
48516;SDS011;34310;51.904;4.256;2023-01-19T14:50:43;1.83;;;0.80;;
48516;SDS011;34310;51.904;4.256;2023-01-19T14:53:28;1.10;;;0.60;;
48516;SDS011;34310;51.904;4.256;2023-01-19T14:56:02;1.92;;;0.68;;
48516;SDS011;34310;51.904;4.256;2023-01-19T14:58:32;1.63;;;0.68;;
48516;SDS011;34310;51.904;4.256;2023-01-19T15:01:00;1.30;;;0.63;;
48516;SDS011;34310;51.904;4.256;2023-01-19T15:03:28;1.13;;;0.70;;
48516;SDS011;34310;51.904;4.256;2023-01-19T15:06:11;1.27;;;0.60;;
48516;SDS011;34310;51.904;4.256;2023-01-19T15:08:41;0.70;;;0.55;;
48516;SDS011;34310;51.904;4.256;2023-01-19T15:13:48;1.13;;;0.50;;
48516;SDS011;34310;51.904;4.256;2023-01-19T15:16:16;0.63;;;0.60;;
48516;SDS011;34310;51.904;4.256;2023-01-19T15:18:44;0.75;;;0.70;;
48516;SDS011;34310;51.904;4.256;2023-01-19T15:21:15;0.93;;;0.60;;
48516;SDS011;34310;51.904;4.256;2023-01-19T15:23:45;0.75;;;0.57;;
48516;SDS011;34310;51.904;4.256;2023-01-19T15:26:16;1.52;;;0.70;;
48516;SDS011;34310;51.904;4.256;2023-01-19T15:28:46;0.80;;;0.70;;
48516;SDS011;34310;51.904;4.256;2023-01-19T15:31:14;1.48;;;0.65;;
48516;SDS011;34310;51.904;4.256;2023-01-19T15:33:43;0.85;;;0.60;;
48516;SDS011;34310;51.904;4.256;2023-01-19T15:36:15;0.80;;;0.52;;
48516;SDS011;34310;51.904;4.256;2023-01-19T15:38:44;1.77;;;0.80;;
48516;SDS011;34310;51.904;4.256;2023-01-19T15:41:22;2.53;;;1.00;;
48516;SDS011;34310;51.904;4.256;2023-01-19T15:43:51;0.65;;;0.50;;
48516;SDS011;34310;51.904;4.256;2023-01-19T15:46:19;1.05;;;0.82;;
48516;SDS011;34310;51.904;4.256;2023-01-19T15:48:47;1.85;;;0.70;;
48516;SDS011;34310;51.904;4.256;2023-01-19T15:51:16;2.15;;;0.80;;
48516;SDS011;34310;51.904;4.256;2023-01-19T15:53:45;1.95;;;0.52;;
48516;SDS011;34310;51.904;4.256;2023-01-19T15:56:17;1.15;;;0.93;;
48516;SDS011;34310;51.904;4.256;2023-01-19T15:58:47;0.70;;;0.70;;
48516;SDS011;34310;51.904;4.256;2023-01-19T16:01:18;0.77;;;0.77;;
48516;SDS011;34310;51.904;4.256;2023-01-19T16:03:47;1.08;;;0.70;;
48516;SDS011;34310;51.904;4.256;2023-01-19T16:06:15;1.42;;;0.70;;
48516;SDS011;34310;51.904;4.256;2023-01-19T16:08:43;2.33;;;0.80;;
48516;SDS011;34310;51.904;4.256;2023-01-19T16:11:12;1.60;;;0.70;;
48516;SDS011;34310;51.904;4.256;2023-01-19T16:13:42;1.98;;;0.80;;
48516;SDS011;34310;51.904;4.256;2023-01-19T16:16:13;1.17;;;0.90;;
48516;SDS011;34310;51.904;4.256;2023-01-19T16:18:43;1.25;;;0.90;;
48516;SDS011;34310;51.904;4.256;2023-01-19T16:21:10;1.17;;;1.08;;
48516;SDS011;34310;51.904;4.256;2023-01-19T16:23:38;1.13;;;0.70;;
48516;SDS011;34310;51.904;4.256;2023-01-19T16:26:06;1.75;;;0.85;;
48516;SDS011;34310;51.904;4.256;2023-01-19T16:28:55;1.38;;;0.80;;
48516;SDS011;34310;51.904;4.256;2023-01-19T16:31:24;1.85;;;1.00;;
48516;SDS011;34310;51.904;4.256;2023-01-19T16:33:52;1.98;;;1.00;;
48516;SDS011;34310;51.904;4.256;2023-01-19T16:36:32;2.45;;;1.40;;
48516;SDS011;34310;51.904;4.256;2023-01-19T16:39:03;1.90;;;1.38;;
48516;SDS011;34310;51.904;4.256;2023-01-19T16:41:41;1.52;;;1.05;;
48516;SDS011;34310;51.904;4.256;2023-01-19T16:44:10;1.30;;;1.20;;
48516;SDS011;34310;51.904;4.256;2023-01-19T16:46:40;1.70;;;1.10;;
48516;SDS011;34310;51.904;4.256;2023-01-19T16:49:13;1.15;;;1.00;;
48516;SDS011;34310;51.904;4.256;2023-01-19T16:51:42;0.90;;;0.80;;
48516;SDS011;34310;51.904;4.256;2023-01-19T16:54:11;1.65;;;0.80;;